createdAt,value
2023-03-29T00:00:34.293Z,22.01
2023-03-29T00:03:04.116Z,21.13
2023-03-29T00:05:35.474Z,20.17
2023-03-29T00:08:04.506Z,20.79
2023-03-29T00:10:33.955Z,20.60
2023-03-29T00:13:02.836Z,21.68
2023-03-29T00:15:30.415Z,21.09
2023-03-29T00:17:58.309Z,21.02
2023-03-29T00:20:26.089Z,21.19
2023-03-29T00:22:53.607Z,20.72
2023-03-29T00:25:21.391Z,21.10
2023-03-29T00:27:49.209Z,20.09
2023-03-29T00:30:17.529Z,20.37
2023-03-29T00:32:46.114Z,20.60
2023-03-29T00:35:13.926Z,20.47
2023-03-29T00:37:41.903Z,20.61
2023-03-29T00:40:11.737Z,20.60
2023-03-29T00:42:39.388Z,21.74
2023-03-29T00:45:10.096Z,20.90
2023-03-29T00:47:48.670Z,21.26
2023-03-29T00:50:22.572Z,21.65
2023-03-29T00:52:56.636Z,21.17
2023-03-29T00:55:27.793Z,21.40
2023-03-29T00:57:57.854Z,21.56
2023-03-29T01:00:32.037Z,21.48
2023-03-29T01:03:07.149Z,20.89
2023-03-29T01:05:43.169Z,20.71
2023-03-29T01:08:25.678Z,20.94
2023-03-29T01:11:17.201Z,21.97
2023-03-29T01:13:52.150Z,21.61
2023-03-29T01:16:22.049Z,21.78
2023-03-29T01:18:49.855Z,21.53
2023-03-29T01:21:32.345Z,21.00
2023-03-29T01:24:08.010Z,20.87
2023-03-29T01:26:48.935Z,21.51
2023-03-29T01:29:28.559Z,22.51
2023-03-29T01:32:11.163Z,21.72
2023-03-29T01:34:51.638Z,23.08
2023-03-29T01:37:36.360Z,22.71
2023-03-29T01:40:06.159Z,22.81
2023-03-29T01:42:47.813Z,22.06
2023-03-29T01:45:30.981Z,21.14
2023-03-29T01:48:13.486Z,21.36
2023-03-29T01:51:03.828Z,21.28
2023-03-29T01:53:46.993Z,21.12
2023-03-29T01:56:21.740Z,22.10
2023-03-29T01:58:55.884Z,21.63
2023-03-29T02:01:27.428Z,22.12
2023-03-29T02:04:00.476Z,22.47
2023-03-29T02:06:30.673Z,22.85
2023-03-29T02:09:01.693Z,23.11
2023-03-29T02:11:29.465Z,22.55
2023-03-29T02:13:57.631Z,22.88
2023-03-29T02:16:25.261Z,24.10
2023-03-29T02:18:56.345Z,24.66
2023-03-29T02:21:30.469Z,24.64
2023-03-29T02:24:02.153Z,24.43
2023-03-29T02:26:29.782Z,23.58
2023-03-29T02:28:57.592Z,23.48
2023-03-29T02:31:30.998Z,24.11
2023-03-29T02:34:20.894Z,24.38
2023-03-29T02:37:24.422Z,23.02
2023-03-29T02:39:53.839Z,23.39
2023-03-29T02:42:23.370Z,24.03
2023-03-29T02:44:55.701Z,23.33
2023-03-29T02:47:32.025Z,23.52
2023-03-29T02:50:00.529Z,24.75
2023-03-29T02:52:39.297Z,24.89
2023-03-29T02:55:15.050Z,23.60
2023-03-29T02:57:44.031Z,23.92
2023-03-29T03:00:14.635Z,23.92
2023-03-29T03:02:42.929Z,24.03
2023-03-29T03:05:11.416Z,23.53
2023-03-29T03:07:40.626Z,23.68
2023-03-29T03:10:10.255Z,23.42
2023-03-29T03:12:38.796Z,23.59
2023-03-29T03:15:07.098Z,23.21
2023-03-29T03:17:40.173Z,23.40
2023-03-29T03:20:13.155Z,24.13
2023-03-29T03:22:45.633Z,24.29
2023-03-29T03:25:13.228Z,24.00
2023-03-29T03:27:43.790Z,24.19
2023-03-29T03:30:12.043Z,24.52
2023-03-29T03:32:59.325Z,23.76
2023-03-29T03:35:48.819Z,24.77
2023-03-29T03:38:17.992Z,24.80
2023-03-29T03:40:56.828Z,24.13
2023-03-29T03:43:25.342Z,24.95
2023-03-29T03:45:53.155Z,24.26
2023-03-29T03:48:25.016Z,23.93
2023-03-29T03:51:25.070Z,23.86
2023-03-29T03:53:52.742Z,24.75
2023-03-29T03:56:35.034Z,24.49
2023-03-29T03:59:23.085Z,24.26
2023-03-29T04:01:58.081Z,24.01
2023-03-29T04:04:27.056Z,24.53
2023-03-29T04:07:13.114Z,24.63
2023-03-29T04:09:59.518Z,25.01
2023-03-29T04:12:50.609Z,24.68
2023-03-29T04:15:20.320Z,25.07
2023-03-29T04:18:00.578Z,23.93
2023-03-29T04:20:34.697Z,25.14
2023-03-29T04:23:03.296Z,24.76
2023-03-29T04:25:31.709Z,25.06
2023-03-29T04:27:59.539Z,25.70
2023-03-29T04:30:47.319Z,24.58
2023-03-29T04:33:40.967Z,25.18
2023-03-29T04:36:09.463Z,25.26
2023-03-29T04:38:37.944Z,24.33
2023-03-29T04:41:05.887Z,24.57
2023-03-29T04:43:56.814Z,24.65
2023-03-29T04:46:26.909Z,23.78
2023-03-29T04:49:30.649Z,23.51
2023-03-29T04:52:00.856Z,23.88
2023-03-29T04:54:30.911Z,24.27
2023-03-29T04:57:21.379Z,24.63
2023-03-29T05:00:15.458Z,24.71
2023-03-29T05:03:01.775Z,24.56
2023-03-29T05:05:32.284Z,24.61
2023-03-29T05:08:03.337Z,23.94
2023-03-29T05:10:43.367Z,23.23
2023-03-29T05:13:11.267Z,23.13
2023-03-29T05:15:41.853Z,23.24
2023-03-29T05:18:10.728Z,23.14
2023-03-29T05:20:40.554Z,22.96
2023-03-29T05:23:09.739Z,23.31
2023-03-29T05:26:08.115Z,22.94
2023-03-29T05:28:35.954Z,23.20
2023-03-29T05:31:05.841Z,23.62
2023-03-29T05:33:36.575Z,22.81
2023-03-29T05:36:08.678Z,21.98
2023-03-29T05:38:41.704Z,22.67
2023-03-29T05:41:13.357Z,22.20
2023-03-29T05:43:59.810Z,21.84
2023-03-29T05:46:28.762Z,22.78
2023-03-29T05:48:58.790Z,22.17
2023-03-29T05:51:42.777Z,21.97
2023-03-29T05:54:10.512Z,21.92
2023-03-29T05:56:38.468Z,21.50
2023-03-29T05:59:06.145Z,21.55
2023-03-29T06:01:34.789Z,21.24
2023-03-29T06:04:06.628Z,20.96
2023-03-29T06:06:42.312Z,20.91
2023-03-29T06:09:10.546Z,21.18
2023-03-29T06:11:42.733Z,20.56
2023-03-29T06:14:10.413Z,20.79
2023-03-29T06:16:48.786Z,20.05
2023-03-29T06:19:17.427Z,20.34
2023-03-29T06:21:45.091Z,20.24
2023-03-29T06:24:16.321Z,19.43
2023-03-29T06:26:50.476Z,19.22
2023-03-29T06:29:22.179Z,19.53
2023-03-29T06:31:50.124Z,19.71
2023-03-29T06:34:54.142Z,18.40
2023-03-29T06:37:50.808Z,20.56
2023-03-29T06:40:38.794Z,18.74
2023-03-29T06:43:07.467Z,18.68
2023-03-29T06:45:38.794Z,21.33
2023-03-29T06:48:12.676Z,19.98
2023-03-29T06:50:41.997Z,18.36
2023-03-29T06:53:15.959Z,18.25
2023-03-29T06:55:47.340Z,18.88
2023-03-29T06:58:38.327Z,17.16
2023-03-29T07:01:31.293Z,17.62
2023-03-29T07:04:08.173Z,17.22
2023-03-29T07:07:01.348Z,17.82
2023-03-29T07:09:31.110Z,18.01
2023-03-29T07:12:17.050Z,18.02
2023-03-29T07:14:46.605Z,19.74
2023-03-29T07:17:14.953Z,20.11
2023-03-29T07:19:43.074Z,21.67
2023-03-29T07:22:13.564Z,19.65
2023-03-29T07:24:49.857Z,20.81
2023-03-29T07:27:18.144Z,19.96
2023-03-29T07:29:50.057Z,19.28
2023-03-29T07:32:19.863Z,19.36
2023-03-29T07:34:56.717Z,19.53
2023-03-29T07:37:34.409Z,18.80
2023-03-29T07:40:04.460Z,17.69
2023-03-29T07:42:54.584Z,19.50
2023-03-29T07:45:26.542Z,18.48
2023-03-29T07:48:01.256Z,18.05
2023-03-29T07:50:41.466Z,18.99
2023-03-29T07:53:10.009Z,17.43
2023-03-29T07:55:38.041Z,16.87
2023-03-29T07:58:29.553Z,17.31
2023-03-29T08:01:00.253Z,16.13
2023-03-29T08:04:00.734Z,15.97
2023-03-29T08:07:00.643Z,14.92
2023-03-29T08:09:45.015Z,16.90
2023-03-29T08:12:12.876Z,15.84
2023-03-29T08:14:40.574Z,15.72
2023-03-29T08:17:23.942Z,14.61
2023-03-29T08:19:52.368Z,15.49
2023-03-29T08:22:25.014Z,15.51
2023-03-29T08:25:18.665Z,15.84
2023-03-29T08:27:50.204Z,14.43
2023-03-29T08:30:28.265Z,15.10
2023-03-29T08:32:58.045Z,14.97
2023-03-29T08:35:25.765Z,14.88
2023-03-29T08:38:12.604Z,14.11
2023-03-29T08:40:40.483Z,14.19
2023-03-29T08:43:16.042Z,13.87
2023-03-29T08:46:18.812Z,13.93
2023-03-29T08:48:54.355Z,13.85
2023-03-29T08:51:39.235Z,13.67
2023-03-29T08:54:13.419Z,13.00
2023-03-29T08:57:18.922Z,13.55
2023-03-29T08:59:53.518Z,13.38
2023-03-29T09:02:26.182Z,14.48
2023-03-29T09:05:20.489Z,12.88
2023-03-29T09:08:21.306Z,11.44
2023-03-29T09:11:21.701Z,11.21
2023-03-29T09:14:27.899Z,10.50
2023-03-29T09:17:32.600Z,10.80
2023-03-29T09:20:19.609Z,10.35
2023-03-29T09:22:53.209Z,11.87
2023-03-29T09:25:26.422Z,9.85
2023-03-29T09:28:04.753Z,11.03
2023-03-29T09:30:59.922Z,10.79
2023-03-29T09:33:54.839Z,11.74
2023-03-29T09:36:29.056Z,11.40
2023-03-29T09:38:56.963Z,11.68
2023-03-29T09:41:36.490Z,12.07
2023-03-29T09:44:27.742Z,11.14
2023-03-29T09:47:07.612Z,11.24
2023-03-29T09:49:43.538Z,10.17
2023-03-29T09:52:17.316Z,10.89
2023-03-29T09:55:05.729Z,10.54
2023-03-29T09:58:23.840Z,11.25
2023-03-29T10:00:58.356Z,10.58
2023-03-29T10:03:28.632Z,10.86
2023-03-29T10:06:12.545Z,9.85
2023-03-29T10:08:47.841Z,9.72
2023-03-29T10:11:33.046Z,10.34
2023-03-29T10:14:05.251Z,10.54
2023-03-29T10:16:41.900Z,8.93
2023-03-29T10:19:20.128Z,9.65
2023-03-29T10:21:49.307Z,11.45
2023-03-29T10:24:21.842Z,9.98
2023-03-29T10:26:56.197Z,9.78
2023-03-29T10:29:25.586Z,10.31
2023-03-29T10:31:53.893Z,9.38
2023-03-29T10:34:26.025Z,10.05
2023-03-29T10:37:01.377Z,9.00
2023-03-29T10:39:34.119Z,8.28
2023-03-29T10:42:04.194Z,8.28
2023-03-29T10:44:35.680Z,8.11
2023-03-29T10:47:19.528Z,10.47
2023-03-29T10:49:53.211Z,9.36
2023-03-29T10:52:23.111Z,9.80
2023-03-29T10:54:52.711Z,10.22
2023-03-29T10:57:41.880Z,9.49
2023-03-29T11:00:40.807Z,8.28
2023-03-29T11:03:16.215Z,8.00
2023-03-29T11:06:17.138Z,7.86
2023-03-29T11:09:06.850Z,8.89
2023-03-29T11:12:26.893Z,8.92
2023-03-29T11:15:14.617Z,8.72
2023-03-29T11:18:14.981Z,8.99
2023-03-29T11:20:54.193Z,8.91
2023-03-29T11:23:42.931Z,8.22
2023-03-29T11:26:22.610Z,8.48
2023-03-29T11:29:00.515Z,8.92
2023-03-29T11:31:43.999Z,10.13
2023-03-29T11:34:26.583Z,10.94
2023-03-29T11:37:05.740Z,9.04
2023-03-29T11:39:36.276Z,10.41
2023-03-29T11:42:16.041Z,11.86
2023-03-29T11:44:47.230Z,11.96
2023-03-29T11:47:20.517Z,9.99
2023-03-29T11:49:56.281Z,10.38
2023-03-29T11:52:26.543Z,10.63
2023-03-29T11:55:05.456Z,12.22
2023-03-29T11:57:40.716Z,12.52
2023-03-29T12:00:27.538Z,11.54
2023-03-29T12:03:05.414Z,9.84
2023-03-29T12:05:47.315Z,10.29
2023-03-29T12:08:29.236Z,10.38
2023-03-29T12:11:28.602Z,10.86
2023-03-29T12:14:15.595Z,10.77
2023-03-29T12:16:43.109Z,12.03
2023-03-29T12:19:31.839Z,10.81
2023-03-29T12:22:01.305Z,10.68
2023-03-29T12:24:32.610Z,11.49
2023-03-29T12:27:21.261Z,10.89
2023-03-29T12:29:57.959Z,9.96
2023-03-29T12:32:31.393Z,11.33
2023-03-29T12:35:35.220Z,12.36
2023-03-29T12:38:28.714Z,10.78
2023-03-29T12:41:21.849Z,11.27
2023-03-29T12:44:09.609Z,11.61
2023-03-29T12:46:52.041Z,11.15
2023-03-29T12:49:29.035Z,10.65
2023-03-29T12:51:59.231Z,9.77
2023-03-29T12:54:33.241Z,10.94
2023-03-29T12:57:26.113Z,10.21
2023-03-29T12:59:54.133Z,11.36
2023-03-29T13:02:21.880Z,10.41
2023-03-29T13:04:51.244Z,11.44
2023-03-29T13:07:27.427Z,9.47
2023-03-29T13:09:56.480Z,8.85
2023-03-29T13:12:40.284Z,10.48
2023-03-29T13:15:23.685Z,10.60
2023-03-29T13:18:16.128Z,11.80
2023-03-29T13:21:06.996Z,11.25
2023-03-29T13:23:40.782Z,12.31
2023-03-29T13:26:30.466Z,12.37
2023-03-29T13:29:29.363Z,13.28
2023-03-29T13:32:39.261Z,13.13
2023-03-29T13:35:30.277Z,13.19
2023-03-29T13:38:00.768Z,13.08
2023-03-29T13:40:46.919Z,12.66
2023-03-29T13:43:18.624Z,13.58
2023-03-29T13:45:58.120Z,13.48
2023-03-29T13:48:27.501Z,13.92
2023-03-29T13:51:08.207Z,12.83
2023-03-29T13:53:41.525Z,14.71
2023-03-29T13:56:17.810Z,14.04
2023-03-29T13:58:51.294Z,15.53
2023-03-29T14:01:29.705Z,13.72
2023-03-29T14:03:59.368Z,13.63
2023-03-29T14:06:31.740Z,13.47
2023-03-29T14:09:08.752Z,12.97
2023-03-29T14:11:36.636Z,13.21
2023-03-29T14:14:07.321Z,14.12
2023-03-29T14:16:37.291Z,14.40
2023-03-29T14:19:13.505Z,13.13
2023-03-29T14:21:42.726Z,14.18
2023-03-29T14:24:12.943Z,13.95
2023-03-29T14:26:45.978Z,13.46
2023-03-29T14:29:13.868Z,13.14
2023-03-29T14:31:42.601Z,13.10
2023-03-29T14:34:15.936Z,13.81
2023-03-29T14:36:49.123Z,13.27
2023-03-29T14:39:23.600Z,13.59
2023-03-29T14:41:53.463Z,13.98
2023-03-29T14:44:25.001Z,14.42
2023-03-29T14:46:53.816Z,13.75
2023-03-29T14:49:23.178Z,14.70
2023-03-29T14:51:52.738Z,16.12
2023-03-29T14:54:28.766Z,14.92
2023-03-29T14:56:56.607Z,15.90
2023-03-29T14:59:28.263Z,14.72
2023-03-29T15:01:56.427Z,16.13
2023-03-29T15:04:33.002Z,14.61
2023-03-29T15:07:00.799Z,15.04
2023-03-29T15:09:35.334Z,14.80
2023-03-29T15:12:03.464Z,14.52
2023-03-29T15:14:33.978Z,13.55
2023-03-29T15:17:05.172Z,15.26
2023-03-29T15:19:33.289Z,14.66
2023-03-29T15:22:05.417Z,15.25
2023-03-29T15:24:33.949Z,16.51
2023-03-29T15:27:13.773Z,15.42
2023-03-29T15:29:43.311Z,15.42
2023-03-29T15:32:22.678Z,15.28
2023-03-29T15:35:00.181Z,15.07
2023-03-29T15:37:28.459Z,14.99
2023-03-29T15:39:56.789Z,14.82
2023-03-29T15:42:25.899Z,15.95
2023-03-29T15:44:56.232Z,15.78
2023-03-29T15:47:24.165Z,15.51
2023-03-29T15:49:52.180Z,16.54
2023-03-29T15:52:19.666Z,15.21
2023-03-29T15:54:47.233Z,14.80
2023-03-29T15:57:17.914Z,16.79
2023-03-29T15:59:45.790Z,16.62
2023-03-29T16:02:17.649Z,16.10
2023-03-29T16:04:45.347Z,16.27
2023-03-29T16:07:15.610Z,16.25
2023-03-29T16:09:44.172Z,15.87
2023-03-29T16:12:12.507Z,16.34
2023-03-29T16:14:41.283Z,16.09
2023-03-29T16:17:10.906Z,15.79
2023-03-29T16:19:38.504Z,16.17
2023-03-29T16:22:07.537Z,15.70
2023-03-29T16:24:36.436Z,15.17
2023-03-29T16:27:04.403Z,15.26
2023-03-29T16:29:32.274Z,16.67
2023-03-29T16:32:00.698Z,16.32
2023-03-29T16:34:28.607Z,16.25
2023-03-29T16:36:56.085Z,17.24
2023-03-29T16:39:23.702Z,17.34
2023-03-29T16:41:51.413Z,17.15
2023-03-29T16:44:23.828Z,17.29
2023-03-29T16:46:57.483Z,17.66
2023-03-29T16:49:25.240Z,18.77
2023-03-29T16:51:52.944Z,17.49
2023-03-29T16:54:20.535Z,17.67
2023-03-29T16:56:48.224Z,17.81
2023-03-29T16:59:16.648Z,17.55
2023-03-29T17:01:44.472Z,18.47
2023-03-29T17:04:12.231Z,18.55
2023-03-29T17:06:43.600Z,17.64
2023-03-29T17:09:12.525Z,18.48
2023-03-29T17:11:41.445Z,18.19
2023-03-29T17:14:10.387Z,18.69
2023-03-29T17:16:38.188Z,19.36
2023-03-29T17:19:06.108Z,19.30
2023-03-29T17:21:33.915Z,20.50
2023-03-29T17:24:01.917Z,21.13
2023-03-29T17:26:30.447Z,19.78
2023-03-29T17:28:57.986Z,19.09
2023-03-29T17:31:26.079Z,19.13
2023-03-29T17:33:54.740Z,19.83
2023-03-29T17:36:24.329Z,20.84
2023-03-29T17:38:52.140Z,20.56
2023-03-29T17:41:19.828Z,19.78
2023-03-29T17:43:48.073Z,19.35
2023-03-29T17:46:16.904Z,20.04
2023-03-29T17:48:46.171Z,20.41
2023-03-29T17:51:14.182Z,20.62
2023-03-29T17:53:43.420Z,19.50
2023-03-29T17:56:13.771Z,19.84
2023-03-29T17:58:41.363Z,20.06
2023-03-29T18:01:11.041Z,19.66
2023-03-29T18:03:38.969Z,20.61
2023-03-29T18:06:07.743Z,20.75
2023-03-29T18:08:35.861Z,19.55
2023-03-29T18:11:22.269Z,18.57
2023-03-29T18:13:53.906Z,19.12
2023-03-29T18:16:22.134Z,19.94
2023-03-29T18:18:52.839Z,20.64
2023-03-29T18:21:21.061Z,19.62
2023-03-29T18:23:49.864Z,19.54
2023-03-29T18:26:19.907Z,20.70
2023-03-29T18:28:48.214Z,20.00
2023-03-29T18:31:16.902Z,19.36
2023-03-29T18:33:48.449Z,19.25
2023-03-29T18:36:17.419Z,19.00
2023-03-29T18:38:45.842Z,19.71
2023-03-29T18:41:16.756Z,20.07
2023-03-29T18:43:45.069Z,20.63
2023-03-29T18:46:13.140Z,19.99
2023-03-29T18:48:43.945Z,19.92
2023-03-29T18:51:12.669Z,19.55
2023-03-29T18:53:42.983Z,19.84
2023-03-29T18:56:11.209Z,19.68
2023-03-29T18:58:39.419Z,19.31
2023-03-29T19:01:09.657Z,19.72
2023-03-29T19:03:37.980Z,20.13
2023-03-29T19:06:08.781Z,20.02
2023-03-29T19:08:41.211Z,19.99
2023-03-29T19:11:14.144Z,20.18
2023-03-29T19:13:42.541Z,20.07
2023-03-29T19:16:10.343Z,20.08
2023-03-29T19:18:38.169Z,20.62
2023-03-29T19:21:06.454Z,19.91
2023-03-29T19:23:34.469Z,20.02
2023-03-29T19:26:04.013Z,19.72
2023-03-29T19:28:33.889Z,19.74
2023-03-29T19:31:03.284Z,20.36
2023-03-29T19:33:34.491Z,20.00
2023-03-29T19:36:03.250Z,20.79
2023-03-29T19:38:31.853Z,21.06
2023-03-29T19:41:05.005Z,21.16
2023-03-29T19:43:34.811Z,20.69
2023-03-29T19:46:09.469Z,20.18
2023-03-29T19:48:38.205Z,20.46
2023-03-29T19:51:06.119Z,20.64
2023-03-29T19:53:38.199Z,20.51
2023-03-29T19:56:07.838Z,21.06
2023-03-29T19:58:37.507Z,21.31
2023-03-29T20:01:06.102Z,21.23
2023-03-29T20:03:34.374Z,21.83
2023-03-29T20:06:02.720Z,21.29
2023-03-29T20:08:30.551Z,21.93
2023-03-29T20:10:59.752Z,21.84
2023-03-29T20:13:37.619Z,21.51
2023-03-29T20:16:11.518Z,21.39
2023-03-29T20:18:39.676Z,21.63
2023-03-29T20:21:09.326Z,21.20
2023-03-29T20:23:37.435Z,21.38
2023-03-29T20:26:05.107Z,21.37
2023-03-29T20:28:33.896Z,20.99
2023-03-29T20:31:06.828Z,20.96
2023-03-29T20:33:34.497Z,21.30
2023-03-29T20:36:02.211Z,21.10
2023-03-29T20:38:29.857Z,21.93
2023-03-29T20:40:57.577Z,21.43
2023-03-29T20:43:25.504Z,21.78
2023-03-29T20:45:54.303Z,21.76
2023-03-29T20:48:24.330Z,21.88
2023-03-29T20:50:52.091Z,21.83
2023-03-29T20:53:20.719Z,22.89
2023-03-29T20:55:48.501Z,22.07
2023-03-29T20:58:16.141Z,22.24
2023-03-29T21:00:44.520Z,23.22
2023-03-29T21:03:12.498Z,22.37
2023-03-29T21:05:40.179Z,22.02
2023-03-29T21:08:08.447Z,21.92
2023-03-29T21:10:38.753Z,22.18
2023-03-29T21:13:07.644Z,22.11
2023-03-29T21:15:35.347Z,22.23
2023-03-29T21:18:04.225Z,22.31
2023-03-29T21:20:32.321Z,21.90
2023-03-29T21:23:01.043Z,21.75
2023-03-29T21:25:29.041Z,23.92
2023-03-29T21:27:56.771Z,22.70
2023-03-29T21:30:24.344Z,22.26
2023-03-29T21:32:52.200Z,22.22
2023-03-29T21:35:19.831Z,22.17
2023-03-29T21:37:47.405Z,22.31
2023-03-29T21:40:15.279Z,22.09
2023-03-29T21:42:42.916Z,22.29
2023-03-29T21:45:10.956Z,22.04
2023-03-29T21:47:38.610Z,22.16
2023-03-29T21:50:06.805Z,22.47
2023-03-29T21:52:34.397Z,22.71
2023-03-29T21:55:01.924Z,22.97
2023-03-29T21:57:29.715Z,23.79
2023-03-29T21:59:57.538Z,23.88
2023-03-29T22:02:25.184Z,22.99
2023-03-29T22:04:52.805Z,22.71
2023-03-29T22:07:22.794Z,23.45
2023-03-29T22:09:50.468Z,23.06
2023-03-29T22:12:19.330Z,23.59
2023-03-29T22:14:47.392Z,23.93
2023-03-29T22:17:16.059Z,23.38
2023-03-29T22:19:44.177Z,23.47
2023-03-29T22:22:14.310Z,23.14
2023-03-29T22:24:42.373Z,23.38
2023-03-29T22:27:11.725Z,23.29
2023-03-29T22:29:39.224Z,23.48
2023-03-29T22:32:06.965Z,25.01
2023-03-29T22:34:34.597Z,23.57
2023-03-29T22:37:02.176Z,23.34
2023-03-29T22:39:29.917Z,23.67
2023-03-29T22:41:57.572Z,24.38
2023-03-29T22:44:26.080Z,23.65
2023-03-29T22:46:53.646Z,24.06
2023-03-29T22:49:21.522Z,23.65
2023-03-29T22:51:49.047Z,23.68
2023-03-29T22:54:17.006Z,24.01
2023-03-29T22:56:44.566Z,24.47
2023-03-29T22:59:12.211Z,24.06
2023-03-29T23:01:39.899Z,23.86
2023-03-29T23:04:07.604Z,23.69
2023-03-29T23:06:35.310Z,23.76
2023-03-29T23:09:03.779Z,23.97
2023-03-29T23:11:31.778Z,24.62
2023-03-29T23:13:59.686Z,24.35
2023-03-29T23:16:27.248Z,24.56
2023-03-29T23:18:54.813Z,24.38
2023-03-29T23:21:23.100Z,24.02
2023-03-29T23:23:50.717Z,23.99
2023-03-29T23:26:18.291Z,23.90
2023-03-29T23:28:45.982Z,24.11
2023-03-29T23:31:18.464Z,23.72
2023-03-29T23:33:46.765Z,24.63
2023-03-29T23:36:16.620Z,24.55
2023-03-29T23:38:45.895Z,23.88
2023-03-29T23:41:14.479Z,26.48
2023-03-29T23:43:43.589Z,26.17
2023-03-29T23:46:15.247Z,24.34
2023-03-29T23:48:47.340Z,23.86
2023-03-29T23:51:18.147Z,24.33
2023-03-29T23:53:46.613Z,24.30
2023-03-29T23:56:14.445Z,24.13
2023-03-29T23:58:42.318Z,23.85
